Terminal Aerodrome Forecast
Issued by NWS

Home | Current Version | Previous Version | Text Only | Print | Product List | Glossary On
Versions: 1 2 3 4 5 6 7 8 9 10 11 12 13 14 15 16 17 18 19 20 21 22 23 24 25 26 27 28 29 30 31 32 33 34 35 36 37 38 39 40 41 42 43 44 45 46
000
FTUS42 KGSP 221500 AAA
TAFHKY
TAF AMD
KHKY 221502Z 2215/2312 06005KT P6SM BKN009 OVC015
      TEMPO 2215/2217 5SM -SHRA SCT009 BKN015 OVC045
     FM221700 00000KT P6SM VCSH OVC015
     FM222000 08003KT P6SM -SHRA BKN035
      TEMPO 2221/2224 4SM TSRA BKN040CB
     FM230900 30003KT 3SM BR BKN060=

USA.gov is the U.S. government's official web portal to all federal, state and local government web resources and services.